sensor_id;sensor_type;location;lat;lon;timestamp;P1;durP1;ratioP1;P2;durP2;ratioP2
5077;SDS011;2557;51.390;7.494;2023-02-22T00:02:12;52.00;;;24.10;;
5077;SDS011;2557;51.390;7.494;2023-02-22T00:04:50;47.17;;;23.80;;
5077;SDS011;2557;51.390;7.494;2023-02-22T00:07:16;53.00;;;22.83;;
5077;SDS011;2557;51.390;7.494;2023-02-22T00:09:45;45.43;;;24.20;;
5077;SDS011;2557;51.390;7.494;2023-02-22T00:12:11;63.70;;;26.00;;
5077;SDS011;2557;51.390;7.494;2023-02-22T00:14:37;59.83;;;24.53;;
5077;SDS011;2557;51.390;7.494;2023-02-22T00:17:04;154.10;;;33.57;;
5077;SDS011;2557;51.390;7.494;2023-02-22T00:19:30;70.37;;;26.80;;
5077;SDS011;2557;51.390;7.494;2023-02-22T00:21:56;73.67;;;28.03;;
5077;SDS011;2557;51.390;7.494;2023-02-22T00:24:22;66.90;;;29.60;;
5077;SDS011;2557;51.390;7.494;2023-02-22T00:26:50;97.53;;;30.00;;
5077;SDS011;2557;51.390;7.494;2023-02-22T00:29:16;77.57;;;27.63;;
5077;SDS011;2557;51.390;7.494;2023-02-22T00:31:42;75.70;;;28.20;;
5077;SDS011;2557;51.390;7.494;2023-02-22T00:34:08;136.37;;;34.40;;
5077;SDS011;2557;51.390;7.494;2023-02-22T00:36:34;115.57;;;32.20;;
5077;SDS011;2557;51.390;7.494;2023-02-22T00:39:00;80.60;;;27.60;;
5077;SDS011;2557;51.390;7.494;2023-02-22T00:41:26;110.13;;;29.73;;
5077;SDS011;2557;51.390;7.494;2023-02-22T00:43:52;113.07;;;31.50;;
5077;SDS011;2557;51.390;7.494;2023-02-22T00:46:18;124.40;;;31.30;;
5077;SDS011;2557;51.390;7.494;2023-02-22T00:48:44;103.03;;;31.90;;
5077;SDS011;2557;51.390;7.494;2023-02-22T00:51:10;163.60;;;32.77;;
5077;SDS011;2557;51.390;7.494;2023-02-22T00:53:36;132.37;;;31.97;;
5077;SDS011;2557;51.390;7.494;2023-02-22T00:56:01;107.17;;;31.80;;
5077;SDS011;2557;51.390;7.494;2023-02-22T00:58:27;86.83;;;27.00;;
5077;SDS011;2557;51.390;7.494;2023-02-22T01:00:53;115.80;;;30.90;;
5077;SDS011;2557;51.390;7.494;2023-02-22T01:03:19;120.63;;;29.37;;
5077;SDS011;2557;51.390;7.494;2023-02-22T01:05:46;80.00;;;29.10;;
5077;SDS011;2557;51.390;7.494;2023-02-22T01:08:12;101.73;;;27.67;;
5077;SDS011;2557;51.390;7.494;2023-02-22T01:10:39;106.77;;;29.37;;
5077;SDS011;2557;51.390;7.494;2023-02-22T01:13:05;118.20;;;27.77;;
5077;SDS011;2557;51.390;7.494;2023-02-22T01:15:36;170.63;;;31.33;;
5077;SDS011;2557;51.390;7.494;2023-02-22T01:18:03;192.37;;;33.50;;
5077;SDS011;2557;51.390;7.494;2023-02-22T01:20:29;91.53;;;27.90;;
5077;SDS011;2557;51.390;7.494;2023-02-22T01:22:57;150.87;;;32.07;;
5077;SDS011;2557;51.390;7.494;2023-02-22T01:25:25;63.57;;;23.77;;
5077;SDS011;2557;51.390;7.494;2023-02-22T01:27:51;102.47;;;26.20;;
5077;SDS011;2557;51.390;7.494;2023-02-22T01:30:21;83.10;;;25.20;;
5077;SDS011;2557;51.390;7.494;2023-02-22T01:32:47;90.70;;;26.27;;
5077;SDS011;2557;51.390;7.494;2023-02-22T01:35:16;167.13;;;30.20;;
5077;SDS011;2557;51.390;7.494;2023-02-22T01:37:42;152.40;;;32.83;;
5077;SDS011;2557;51.390;7.494;2023-02-22T01:40:10;151.17;;;31.57;;
5077;SDS011;2557;51.390;7.494;2023-02-22T01:42:40;144.87;;;32.00;;
5077;SDS011;2557;51.390;7.494;2023-02-22T01:47:51;160.50;;;30.30;;
5077;SDS011;2557;51.390;7.494;2023-02-22T01:50:17;92.43;;;25.10;;
5077;SDS011;2557;51.390;7.494;2023-02-22T01:52:43;129.77;;;29.97;;
5077;SDS011;2557;51.390;7.494;2023-02-22T01:55:09;79.70;;;22.07;;
5077;SDS011;2557;51.390;7.494;2023-02-22T01:57:35;85.97;;;26.27;;
5077;SDS011;2557;51.390;7.494;2023-02-22T02:00:06;144.10;;;32.13;;
5077;SDS011;2557;51.390;7.494;2023-02-22T02:02:36;105.23;;;29.90;;
5077;SDS011;2557;51.390;7.494;2023-02-22T02:05:05;77.00;;;24.40;;
5077;SDS011;2557;51.390;7.494;2023-02-22T02:07:32;141.70;;;29.77;;
5077;SDS011;2557;51.390;7.494;2023-02-22T02:10:03;192.27;;;37.40;;
5077;SDS011;2557;51.390;7.494;2023-02-22T02:12:32;92.67;;;28.10;;
5077;SDS011;2557;51.390;7.494;2023-02-22T02:17:44;189.07;;;33.47;;
5077;SDS011;2557;51.390;7.494;2023-02-22T02:25:15;105.83;;;25.67;;
5077;SDS011;2557;51.390;7.494;2023-02-22T02:30:27;228.37;;;36.33;;
5077;SDS011;2557;51.390;7.494;2023-02-22T02:33:01;126.97;;;25.53;;
5077;SDS011;2557;51.390;7.494;2023-02-22T02:38:20;163.60;;;31.90;;
5077;SDS011;2557;51.390;7.494;2023-02-22T02:40:51;100.90;;;24.90;;
5077;SDS011;2557;51.390;7.494;2023-02-22T02:43:21;113.93;;;24.30;;
5077;SDS011;2557;51.390;7.494;2023-02-22T02:45:53;139.90;;;27.20;;
5077;SDS011;2557;51.390;7.494;2023-02-22T02:48:22;262.77;;;38.03;;
5077;SDS011;2557;51.390;7.494;2023-02-22T02:50:50;209.53;;;32.30;;
5077;SDS011;2557;51.390;7.494;2023-02-22T02:53:20;181.20;;;32.60;;
5077;SDS011;2557;51.390;7.494;2023-02-22T02:55:46;135.23;;;28.30;;
5077;SDS011;2557;51.390;7.494;2023-02-22T02:58:16;136.90;;;27.00;;
5077;SDS011;2557;51.390;7.494;2023-02-22T03:00:44;177.83;;;31.30;;
5077;SDS011;2557;51.390;7.494;2023-02-22T03:13:35;94.33;;;22.43;;
5077;SDS011;2557;51.390;7.494;2023-02-22T03:16:14;187.93;;;30.00;;
5077;SDS011;2557;51.390;7.494;2023-02-22T03:21:23;190.33;;;33.50;;
5077;SDS011;2557;51.390;7.494;2023-02-22T03:26:25;84.87;;;21.60;;
5077;SDS011;2557;51.390;7.494;2023-02-22T03:28:52;95.97;;;19.03;;
5077;SDS011;2557;51.390;7.494;2023-02-22T03:31:24;150.50;;;25.60;;
5077;SDS011;2557;51.390;7.494;2023-02-22T03:34:25;75.50;;;18.37;;
5077;SDS011;2557;51.390;7.494;2023-02-22T03:36:44;78.28;;;18.48;;
5077;SDS011;2557;51.390;7.494;2023-02-22T03:39:13;89.67;;;20.20;;
5077;SDS011;2557;51.390;7.494;2023-02-22T03:41:44;121.37;;;23.60;;
5077;SDS011;2557;51.390;7.494;2023-02-22T03:44:13;91.63;;;19.00;;
5077;SDS011;2557;51.390;7.494;2023-02-22T03:46:40;105.13;;;21.83;;
5077;SDS011;2557;51.390;7.494;2023-02-22T03:49:08;89.38;;;18.38;;
5077;SDS011;2557;51.390;7.494;2023-02-22T03:51:35;96.65;;;19.02;;
5077;SDS011;2557;51.390;7.494;2023-02-22T03:54:01;76.40;;;17.90;;
5077;SDS011;2557;51.390;7.494;2023-02-22T03:56:29;143.47;;;22.90;;
5077;SDS011;2557;51.390;7.494;2023-02-22T03:58:59;100.63;;;18.87;;
5077;SDS011;2557;51.390;7.494;2023-02-22T04:01:25;98.00;;;18.17;;
5077;SDS011;2557;51.390;7.494;2023-02-22T04:03:51;96.13;;;19.00;;
5077;SDS011;2557;51.390;7.494;2023-02-22T04:06:17;85.00;;;21.27;;
5077;SDS011;2557;51.390;7.494;2023-02-22T04:08:43;93.67;;;18.90;;
5077;SDS011;2557;51.390;7.494;2023-02-22T04:11:09;96.27;;;20.77;;
5077;SDS011;2557;51.390;7.494;2023-02-22T04:13:35;106.55;;;19.88;;
5077;SDS011;2557;51.390;7.494;2023-02-22T04:16:01;99.47;;;18.53;;
5077;SDS011;2557;51.390;7.494;2023-02-22T04:18:27;75.20;;;16.85;;
5077;SDS011;2557;51.390;7.494;2023-02-22T04:20:53;92.40;;;18.87;;
5077;SDS011;2557;51.390;7.494;2023-02-22T04:23:20;131.93;;;21.50;;
5077;SDS011;2557;51.390;7.494;2023-02-22T04:25:46;133.52;;;22.77;;
5077;SDS011;2557;51.390;7.494;2023-02-22T04:28:12;109.33;;;20.23;;
5077;SDS011;2557;51.390;7.494;2023-02-22T04:30:38;108.95;;;19.75;;
5077;SDS011;2557;51.390;7.494;2023-02-22T04:33:04;65.63;;;15.80;;
5077;SDS011;2557;51.390;7.494;2023-02-22T04:35:30;72.40;;;15.50;;
5077;SDS011;2557;51.390;7.494;2023-02-22T04:37:56;99.90;;;19.10;;
5077;SDS011;2557;51.390;7.494;2023-02-22T04:40:22;115.90;;;21.02;;
5077;SDS011;2557;51.390;7.494;2023-02-22T04:42:48;75.55;;;16.33;;
5077;SDS011;2557;51.390;7.494;2023-02-22T04:45:14;102.43;;;19.60;;
5077;SDS011;2557;51.390;7.494;2023-02-22T04:47:40;117.53;;;20.77;;
5077;SDS011;2557;51.390;7.494;2023-02-22T04:50:08;143.43;;;20.70;;
5077;SDS011;2557;51.390;7.494;2023-02-22T04:52:34;97.30;;;20.20;;
5077;SDS011;2557;51.390;7.494;2023-02-22T04:55:00;56.70;;;15.60;;
5077;SDS011;2557;51.390;7.494;2023-02-22T04:57:26;65.00;;;17.05;;
5077;SDS011;2557;51.390;7.494;2023-02-22T04:59:52;166.20;;;19.80;;
5077;SDS011;2557;51.390;7.494;2023-02-22T05:02:18;104.82;;;18.77;;
5077;SDS011;2557;51.390;7.494;2023-02-22T05:04:44;96.35;;;19.52;;
5077;SDS011;2557;51.390;7.494;2023-02-22T05:07:10;49.87;;;15.80;;
5077;SDS011;2557;51.390;7.494;2023-02-22T05:09:36;68.17;;;16.43;;
5077;SDS011;2557;51.390;7.494;2023-02-22T05:12:02;176.03;;;24.27;;
5077;SDS011;2557;51.390;7.494;2023-02-22T05:14:28;55.42;;;14.95;;
5077;SDS011;2557;51.390;7.494;2023-02-22T05:16:55;68.15;;;18.10;;
5077;SDS011;2557;51.390;7.494;2023-02-22T05:19:22;91.32;;;19.67;;
5077;SDS011;2557;51.390;7.494;2023-02-22T05:21:48;59.00;;;15.48;;
5077;SDS011;2557;51.390;7.494;2023-02-22T05:24:14;40.22;;;14.32;;
5077;SDS011;2557;51.390;7.494;2023-02-22T05:26:41;62.55;;;16.88;;
5077;SDS011;2557;51.390;7.494;2023-02-22T05:29:07;74.25;;;16.30;;
5077;SDS011;2557;51.390;7.494;2023-02-22T05:31:33;52.33;;;14.50;;
5077;SDS011;2557;51.390;7.494;2023-02-22T05:33:59;101.07;;;19.37;;
5077;SDS011;2557;51.390;7.494;2023-02-22T05:36:25;85.13;;;19.70;;
5077;SDS011;2557;51.390;7.494;2023-02-22T05:38:51;83.47;;;18.48;;
5077;SDS011;2557;51.390;7.494;2023-02-22T05:41:18;112.27;;;20.60;;
5077;SDS011;2557;51.390;7.494;2023-02-22T05:43:44;42.95;;;14.13;;
5077;SDS011;2557;51.390;7.494;2023-02-22T05:46:11;47.78;;;13.90;;
5077;SDS011;2557;51.390;7.494;2023-02-22T05:48:38;42.03;;;13.00;;
5077;SDS011;2557;51.390;7.494;2023-02-22T05:51:04;62.80;;;15.10;;
5077;SDS011;2557;51.390;7.494;2023-02-22T05:53:30;67.63;;;16.10;;
5077;SDS011;2557;51.390;7.494;2023-02-22T05:55:56;61.00;;;14.57;;
5077;SDS011;2557;51.390;7.494;2023-02-22T05:58:22;48.40;;;14.00;;
5077;SDS011;2557;51.390;7.494;2023-02-22T06:00:48;61.33;;;16.10;;
5077;SDS011;2557;51.390;7.494;2023-02-22T06:03:14;60.23;;;14.80;;
5077;SDS011;2557;51.390;7.494;2023-02-22T06:05:40;28.73;;;11.73;;
5077;SDS011;2557;51.390;7.494;2023-02-22T06:08:07;51.03;;;12.30;;
5077;SDS011;2557;51.390;7.494;2023-02-22T06:10:33;38.75;;;11.40;;
5077;SDS011;2557;51.390;7.494;2023-02-22T06:12:59;32.43;;;12.30;;
5077;SDS011;2557;51.390;7.494;2023-02-22T06:15:26;27.25;;;11.65;;
5077;SDS011;2557;51.390;7.494;2023-02-22T06:17:52;27.73;;;11.90;;
5077;SDS011;2557;51.390;7.494;2023-02-22T06:20:20;21.30;;;11.82;;
5077;SDS011;2557;51.390;7.494;2023-02-22T06:22:49;17.52;;;10.57;;
5077;SDS011;2557;51.390;7.494;2023-02-22T06:25:16;15.57;;;8.95;;
5077;SDS011;2557;51.390;7.494;2023-02-22T06:27:43;13.50;;;9.02;;
5077;SDS011;2557;51.390;7.494;2023-02-22T06:30:10;14.70;;;8.70;;
5077;SDS011;2557;51.390;7.494;2023-02-22T06:32:36;16.17;;;8.82;;
5077;SDS011;2557;51.390;7.494;2023-02-22T06:35:02;16.00;;;10.40;;
5077;SDS011;2557;51.390;7.494;2023-02-22T06:37:28;14.15;;;9.95;;
5077;SDS011;2557;51.390;7.494;2023-02-22T06:39:54;11.95;;;8.52;;
5077;SDS011;2557;51.390;7.494;2023-02-22T06:42:20;15.40;;;9.20;;
5077;SDS011;2557;51.390;7.494;2023-02-22T06:44:47;14.00;;;9.75;;
5077;SDS011;2557;51.390;7.494;2023-02-22T06:47:14;28.03;;;11.37;;
5077;SDS011;2557;51.390;7.494;2023-02-22T06:49:40;39.10;;;12.80;;
5077;SDS011;2557;51.390;7.494;2023-02-22T06:52:06;32.90;;;11.20;;
5077;SDS011;2557;51.390;7.494;2023-02-22T06:54:34;32.35;;;12.38;;
5077;SDS011;2557;51.390;7.494;2023-02-22T06:57:00;29.58;;;12.75;;
5077;SDS011;2557;51.390;7.494;2023-02-22T06:59:26;29.48;;;12.73;;
5077;SDS011;2557;51.390;7.494;2023-02-22T07:01:52;32.40;;;10.65;;
5077;SDS011;2557;51.390;7.494;2023-02-22T07:04:18;20.52;;;10.85;;
5077;SDS011;2557;51.390;7.494;2023-02-22T07:06:45;18.02;;;9.68;;
5077;SDS011;2557;51.390;7.494;2023-02-22T07:09:11;16.48;;;9.50;;
5077;SDS011;2557;51.390;7.494;2023-02-22T07:11:38;19.63;;;10.20;;
5077;SDS011;2557;51.390;7.494;2023-02-22T07:14:04;17.77;;;11.32;;
5077;SDS011;2557;51.390;7.494;2023-02-22T07:16:30;16.42;;;10.52;;
5077;SDS011;2557;51.390;7.494;2023-02-22T07:18:57;19.33;;;11.40;;
5077;SDS011;2557;51.390;7.494;2023-02-22T07:21:24;17.48;;;11.32;;
5077;SDS011;2557;51.390;7.494;2023-02-22T07:23:51;18.20;;;11.73;;
5077;SDS011;2557;51.390;7.494;2023-02-22T07:26:17;23.45;;;11.20;;
5077;SDS011;2557;51.390;7.494;2023-02-22T07:28:43;16.42;;;11.18;;
5077;SDS011;2557;51.390;7.494;2023-02-22T07:31:09;21.87;;;12.20;;
5077;SDS011;2557;51.390;7.494;2023-02-22T07:33:35;18.13;;;9.63;;
5077;SDS011;2557;51.390;7.494;2023-02-22T07:36:01;20.83;;;11.20;;
5077;SDS011;2557;51.390;7.494;2023-02-22T07:38:27;17.63;;;10.87;;
5077;SDS011;2557;51.390;7.494;2023-02-22T07:40:53;20.13;;;12.30;;
5077;SDS011;2557;51.390;7.494;2023-02-22T07:43:25;21.08;;;12.18;;
5077;SDS011;2557;51.390;7.494;2023-02-22T07:45:52;19.95;;;11.75;;
5077;SDS011;2557;51.390;7.494;2023-02-22T07:48:19;19.75;;;11.55;;
5077;SDS011;2557;51.390;7.494;2023-02-22T07:50:46;20.58;;;12.98;;
5077;SDS011;2557;51.390;7.494;2023-02-22T07:53:14;20.90;;;12.82;;
5077;SDS011;2557;51.390;7.494;2023-02-22T07:55:40;22.38;;;13.40;;
5077;SDS011;2557;51.390;7.494;2023-02-22T07:58:07;22.40;;;14.60;;
5077;SDS011;2557;51.390;7.494;2023-02-22T08:00:35;32.17;;;14.77;;
5077;SDS011;2557;51.390;7.494;2023-02-22T08:03:04;24.95;;;15.35;;
5077;SDS011;2557;51.390;7.494;2023-02-22T08:05:30;21.90;;;14.07;;
5077;SDS011;2557;51.390;7.494;2023-02-22T08:07:56;24.42;;;14.68;;
5077;SDS011;2557;51.390;7.494;2023-02-22T08:10:23;29.13;;;13.60;;
5077;SDS011;2557;51.390;7.494;2023-02-22T08:12:49;24.33;;;14.00;;
5077;SDS011;2557;51.390;7.494;2023-02-22T08:15:21;20.23;;;13.77;;
5077;SDS011;2557;51.390;7.494;2023-02-22T08:17:48;22.30;;;12.88;;
5077;SDS011;2557;51.390;7.494;2023-02-22T08:20:14;21.93;;;14.00;;
5077;SDS011;2557;51.390;7.494;2023-02-22T08:22:43;21.50;;;13.90;;
5077;SDS011;2557;51.390;7.494;2023-02-22T08:25:09;28.33;;;14.00;;
5077;SDS011;2557;51.390;7.494;2023-02-22T08:27:35;28.37;;;15.47;;
5077;SDS011;2557;51.390;7.494;2023-02-22T08:30:01;26.80;;;17.50;;
5077;SDS011;2557;51.390;7.494;2023-02-22T08:32:27;28.73;;;19.33;;
5077;SDS011;2557;51.390;7.494;2023-02-22T08:34:53;28.90;;;17.77;;
5077;SDS011;2557;51.390;7.494;2023-02-22T08:37:19;34.17;;;16.90;;
5077;SDS011;2557;51.390;7.494;2023-02-22T08:39:45;30.80;;;17.93;;
5077;SDS011;2557;51.390;7.494;2023-02-22T08:42:11;26.23;;;17.57;;
5077;SDS011;2557;51.390;7.494;2023-02-22T08:44:37;32.83;;;18.67;;
5077;SDS011;2557;51.390;7.494;2023-02-22T08:47:04;28.83;;;15.80;;
5077;SDS011;2557;51.390;7.494;2023-02-22T08:49:30;31.40;;;17.30;;
5077;SDS011;2557;51.390;7.494;2023-02-22T08:51:57;31.13;;;17.37;;
5077;SDS011;2557;51.390;7.494;2023-02-22T08:54:23;34.30;;;19.73;;
5077;SDS011;2557;51.390;7.494;2023-02-22T08:56:49;28.43;;;17.80;;
5077;SDS011;2557;51.390;7.494;2023-02-22T08:59:15;23.93;;;15.97;;
5077;SDS011;2557;51.390;7.494;2023-02-22T09:01:41;30.00;;;16.80;;
5077;SDS011;2557;51.390;7.494;2023-02-22T09:04:07;23.73;;;16.07;;
5077;SDS011;2557;51.390;7.494;2023-02-22T09:06:34;24.30;;;15.63;;
5077;SDS011;2557;51.390;7.494;2023-02-22T09:09:00;20.70;;;14.63;;
5077;SDS011;2557;51.390;7.494;2023-02-22T09:11:26;30.60;;;17.20;;
5077;SDS011;2557;51.390;7.494;2023-02-22T09:13:52;26.13;;;16.80;;
5077;SDS011;2557;51.390;7.494;2023-02-22T09:16:18;31.90;;;18.57;;
5077;SDS011;2557;51.390;7.494;2023-02-22T09:18:44;25.83;;;16.67;;
5077;SDS011;2557;51.390;7.494;2023-02-22T09:21:11;30.20;;;15.60;;
5077;SDS011;2557;51.390;7.494;2023-02-22T09:23:37;24.63;;;15.73;;
5077;SDS011;2557;51.390;7.494;2023-02-22T09:26:03;27.30;;;16.00;;
5077;SDS011;2557;51.390;7.494;2023-02-22T09:28:29;24.70;;;17.37;;
5077;SDS011;2557;51.390;7.494;2023-02-22T09:30:55;28.83;;;15.63;;
5077;SDS011;2557;51.390;7.494;2023-02-22T09:33:21;20.37;;;13.50;;
5077;SDS011;2557;51.390;7.494;2023-02-22T09:35:48;21.17;;;12.77;;
5077;SDS011;2557;51.390;7.494;2023-02-22T09:38:15;20.80;;;13.17;;
5077;SDS011;2557;51.390;7.494;2023-02-22T09:40:44;18.70;;;12.23;;
5077;SDS011;2557;51.390;7.494;2023-02-22T09:48:31;18.43;;;12.00;;
5077;SDS011;2557;51.390;7.494;2023-02-22T09:50:58;19.07;;;11.83;;
5077;SDS011;2557;51.390;7.494;2023-02-22T09:53:31;13.03;;;9.90;;
5077;SDS011;2557;51.390;7.494;2023-02-22T09:56:13;15.63;;;10.70;;
5077;SDS011;2557;51.390;7.494;2023-02-22T09:58:44;13.37;;;8.80;;
5077;SDS011;2557;51.390;7.494;2023-02-22T10:06:43;11.73;;;9.27;;
5077;SDS011;2557;51.390;7.494;2023-02-22T10:09:16;9.90;;;7.50;;
5077;SDS011;2557;51.390;7.494;2023-02-22T10:11:47;9.80;;;8.00;;
5077;SDS011;2557;51.390;7.494;2023-02-22T10:16:56;8.50;;;7.60;;
5077;SDS011;2557;51.390;7.494;2023-02-22T10:19:34;8.07;;;6.30;;
5077;SDS011;2557;51.390;7.494;2023-02-22T10:22:08;12.60;;;7.43;;
5077;SDS011;2557;51.390;7.494;2023-02-22T10:24:55;9.77;;;5.83;;
5077;SDS011;2557;51.390;7.494;2023-02-22T10:27:26;8.90;;;6.00;;
5077;SDS011;2557;51.390;7.494;2023-02-22T10:29:57;8.93;;;6.20;;
5077;SDS011;2557;51.390;7.494;2023-02-22T10:32:25;9.10;;;6.10;;
5077;SDS011;2557;51.390;7.494;2023-02-22T10:34:53;5.93;;;5.17;;
5077;SDS011;2557;51.390;7.494;2023-02-22T10:37:23;8.40;;;5.67;;
5077;SDS011;2557;51.390;7.494;2023-02-22T10:39:50;6.23;;;5.30;;
5077;SDS011;2557;51.390;7.494;2023-02-22T10:42:17;8.47;;;6.90;;
5077;SDS011;2557;51.390;7.494;2023-02-22T10:44:44;10.73;;;6.00;;
5077;SDS011;2557;51.390;7.494;2023-02-22T10:47:12;9.37;;;5.87;;
5077;SDS011;2557;51.390;7.494;2023-02-22T10:49:45;7.87;;;5.57;;
5077;SDS011;2557;51.390;7.494;2023-02-22T10:52:22;7.00;;;4.83;;
5077;SDS011;2557;51.390;7.494;2023-02-22T10:54:49;7.37;;;6.47;;
5077;SDS011;2557;51.390;7.494;2023-02-22T10:57:20;6.77;;;5.07;;
5077;SDS011;2557;51.390;7.494;2023-02-22T10:59:47;8.00;;;5.20;;
5077;SDS011;2557;51.390;7.494;2023-02-22T11:02:17;6.70;;;4.80;;
5077;SDS011;2557;51.390;7.494;2023-02-22T11:04:50;7.50;;;5.10;;
5077;SDS011;2557;51.390;7.494;2023-02-22T11:07:18;6.13;;;5.07;;
5077;SDS011;2557;51.390;7.494;2023-02-22T11:09:49;6.73;;;6.07;;
5077;SDS011;2557;51.390;7.494;2023-02-22T11:12:16;7.77;;;5.97;;
5077;SDS011;2557;51.390;7.494;2023-02-22T11:14:43;7.00;;;5.33;;
5077;SDS011;2557;51.390;7.494;2023-02-22T11:17:09;6.57;;;5.13;;
5077;SDS011;2557;51.390;7.494;2023-02-22T11:19:38;6.63;;;5.97;;
5077;SDS011;2557;51.390;7.494;2023-02-22T11:22:12;5.97;;;5.20;;
5077;SDS011;2557;51.390;7.494;2023-02-22T11:24:48;7.93;;;6.60;;
5077;SDS011;2557;51.390;7.494;2023-02-22T11:27:21;5.80;;;5.30;;
5077;SDS011;2557;51.390;7.494;2023-02-22T11:29:48;5.67;;;5.00;;
5077;SDS011;2557;51.390;7.494;2023-02-22T11:32:15;8.23;;;4.97;;
5077;SDS011;2557;51.390;7.494;2023-02-22T11:34:45;6.27;;;5.67;;
5077;SDS011;2557;51.390;7.494;2023-02-22T11:39:47;6.07;;;5.20;;
5077;SDS011;2557;51.390;7.494;2023-02-22T11:42:22;8.70;;;5.27;;
5077;SDS011;2557;51.390;7.494;2023-02-22T11:45:01;6.13;;;5.53;;
5077;SDS011;2557;51.390;7.494;2023-02-22T11:47:32;7.53;;;5.63;;
5077;SDS011;2557;51.390;7.494;2023-02-22T11:49:58;8.87;;;5.70;;
5077;SDS011;2557;51.390;7.494;2023-02-22T11:52:28;11.30;;;5.47;;
5077;SDS011;2557;51.390;7.494;2023-02-22T11:58:08;6.10;;;5.03;;
5077;SDS011;2557;51.390;7.494;2023-02-22T12:05:56;5.03;;;4.57;;
5077;SDS011;2557;51.390;7.494;2023-02-22T12:11:12;5.70;;;4.90;;
5077;SDS011;2557;51.390;7.494;2023-02-22T12:13:48;4.80;;;3.87;;
5077;SDS011;2557;51.390;7.494;2023-02-22T12:16:22;5.93;;;5.17;;
5077;SDS011;2557;51.390;7.494;2023-02-22T12:21:32;4.57;;;3.80;;
5077;SDS011;2557;51.390;7.494;2023-02-22T12:24:03;4.67;;;3.87;;
5077;SDS011;2557;51.390;7.494;2023-02-22T12:26:41;4.53;;;4.13;;
5077;SDS011;2557;51.390;7.494;2023-02-22T12:29:13;6.47;;;4.30;;
5077;SDS011;2557;51.390;7.494;2023-02-22T12:34:07;4.83;;;3.87;;
5077;SDS011;2557;51.390;7.494;2023-02-22T12:36:39;6.13;;;4.00;;
5077;SDS011;2557;51.390;7.494;2023-02-22T12:39:21;3.67;;;3.37;;
5077;SDS011;2557;51.390;7.494;2023-02-22T12:41:49;4.23;;;3.83;;
5077;SDS011;2557;51.390;7.494;2023-02-22T12:44:29;6.00;;;4.03;;
5077;SDS011;2557;51.390;7.494;2023-02-22T12:46:57;6.43;;;3.93;;
5077;SDS011;2557;51.390;7.494;2023-02-22T12:49:42;6.60;;;4.00;;
5077;SDS011;2557;51.390;7.494;2023-02-22T12:55:03;4.00;;;3.20;;
5077;SDS011;2557;51.390;7.494;2023-02-22T13:00:02;7.20;;;4.43;;
5077;SDS011;2557;51.390;7.494;2023-02-22T13:02:31;4.90;;;4.50;;
5077;SDS011;2557;51.390;7.494;2023-02-22T13:05:00;6.37;;;3.87;;
5077;SDS011;2557;51.390;7.494;2023-02-22T13:12:47;5.20;;;4.70;;
5077;SDS011;2557;51.390;7.494;2023-02-22T13:15:17;5.30;;;4.40;;
5077;SDS011;2557;51.390;7.494;2023-02-22T13:17:51;6.13;;;4.50;;
5077;SDS011;2557;51.390;7.494;2023-02-22T13:20:27;6.03;;;5.00;;
5077;SDS011;2557;51.390;7.494;2023-02-22T13:22:59;5.27;;;4.77;;
5077;SDS011;2557;51.390;7.494;2023-02-22T13:25:36;5.20;;;4.57;;
5077;SDS011;2557;51.390;7.494;2023-02-22T13:30:36;5.53;;;4.90;;
5077;SDS011;2557;51.390;7.494;2023-02-22T13:33:09;7.00;;;4.63;;
5077;SDS011;2557;51.390;7.494;2023-02-22T13:38:09;7.47;;;6.20;;
5077;SDS011;2557;51.390;7.494;2023-02-22T13:40:49;7.73;;;5.50;;
5077;SDS011;2557;51.390;7.494;2023-02-22T13:51:32;8.17;;;5.63;;
5077;SDS011;2557;51.390;7.494;2023-02-22T13:54:24;7.30;;;5.10;;
5077;SDS011;2557;51.390;7.494;2023-02-22T13:56:48;5.40;;;4.83;;
5077;SDS011;2557;51.390;7.494;2023-02-22T13:59:25;5.60;;;4.50;;
5077;SDS011;2557;51.390;7.494;2023-02-22T14:01:52;7.70;;;6.00;;
5077;SDS011;2557;51.390;7.494;2023-02-22T14:09:58;6.50;;;5.30;;
5077;SDS011;2557;51.390;7.494;2023-02-22T14:17:37;6.90;;;5.40;;
5077;SDS011;2557;51.390;7.494;2023-02-22T14:20:16;7.43;;;6.70;;
5077;SDS011;2557;51.390;7.494;2023-02-22T14:22:44;8.20;;;5.50;;
5077;SDS011;2557;51.390;7.494;2023-02-22T14:25:28;6.23;;;5.53;;
5077;SDS011;2557;51.390;7.494;2023-02-22T14:27:54;8.30;;;5.50;;
5077;SDS011;2557;51.390;7.494;2023-02-22T14:30:26;7.37;;;5.33;;
5077;SDS011;2557;51.390;7.494;2023-02-22T14:32:54;11.53;;;5.53;;
5077;SDS011;2557;51.390;7.494;2023-02-22T14:35:20;5.83;;;5.10;;
5077;SDS011;2557;51.390;7.494;2023-02-22T14:37:51;6.60;;;5.23;;
5077;SDS011;2557;51.390;7.494;2023-02-22T14:40:25;8.50;;;5.53;;
5077;SDS011;2557;51.390;7.494;2023-02-22T14:43:09;7.87;;;5.70;;
5077;SDS011;2557;51.390;7.494;2023-02-22T14:45:45;7.73;;;5.50;;
5077;SDS011;2557;51.390;7.494;2023-02-22T14:55:38;7.37;;;5.60;;
5077;SDS011;2557;51.390;7.494;2023-02-22T15:00:41;4.77;;;4.33;;
5077;SDS011;2557;51.390;7.494;2023-02-22T15:03:17;7.13;;;5.50;;
5077;SDS011;2557;51.390;7.494;2023-02-22T15:05:43;6.57;;;5.80;;
5077;SDS011;2557;51.390;7.494;2023-02-22T15:08:11;6.20;;;5.17;;
5077;SDS011;2557;51.390;7.494;2023-02-22T15:10:41;7.50;;;6.00;;
5077;SDS011;2557;51.390;7.494;2023-02-22T15:15:44;8.53;;;7.63;;
5077;SDS011;2557;51.390;7.494;2023-02-22T15:18:15;10.63;;;6.27;;
5077;SDS011;2557;51.390;7.494;2023-02-22T15:20:42;6.93;;;6.20;;
5077;SDS011;2557;51.390;7.494;2023-02-22T15:23:12;9.97;;;5.73;;
5077;SDS011;2557;51.390;7.494;2023-02-22T15:25:38;8.67;;;5.23;;
5077;SDS011;2557;51.390;7.494;2023-02-22T15:28:06;6.67;;;5.47;;
5077;SDS011;2557;51.390;7.494;2023-02-22T15:30:33;8.03;;;5.30;;
5077;SDS011;2557;51.390;7.494;2023-02-22T15:33:13;9.17;;;6.60;;
5077;SDS011;2557;51.390;7.494;2023-02-22T15:35:40;9.27;;;5.67;;
5077;SDS011;2557;51.390;7.494;2023-02-22T15:40:35;9.20;;;6.00;;
5077;SDS011;2557;51.390;7.494;2023-02-22T15:43:07;7.10;;;6.40;;
5077;SDS011;2557;51.390;7.494;2023-02-22T15:45:33;13.40;;;8.17;;
5077;SDS011;2557;51.390;7.494;2023-02-22T15:48:06;6.97;;;6.27;;
5077;SDS011;2557;51.390;7.494;2023-02-22T15:50:33;10.30;;;7.20;;
5077;SDS011;2557;51.390;7.494;2023-02-22T15:55:29;8.80;;;6.73;;
5077;SDS011;2557;51.390;7.494;2023-02-22T15:57:57;9.23;;;7.00;;
5077;SDS011;2557;51.390;7.494;2023-02-22T16:00:26;13.10;;;7.17;;
5077;SDS011;2557;51.390;7.494;2023-02-22T16:03:00;9.80;;;7.13;;
5077;SDS011;2557;51.390;7.494;2023-02-22T16:05:31;15.50;;;8.30;;
5077;SDS011;2557;51.390;7.494;2023-02-22T16:07:59;16.60;;;8.53;;
5077;SDS011;2557;51.390;7.494;2023-02-22T16:13:04;12.37;;;7.90;;
5077;SDS011;2557;51.390;7.494;2023-02-22T16:15:31;12.53;;;7.30;;
5077;SDS011;2557;51.390;7.494;2023-02-22T16:17:57;10.67;;;7.43;;
5077;SDS011;2557;51.390;7.494;2023-02-22T16:20:42;7.97;;;6.70;;
5077;SDS011;2557;51.390;7.494;2023-02-22T16:23:21;12.27;;;7.97;;
5077;SDS011;2557;51.390;7.494;2023-02-22T16:25:59;13.97;;;7.93;;
5077;SDS011;2557;51.390;7.494;2023-02-22T16:28:27;10.87;;;7.90;;
5077;SDS011;2557;51.390;7.494;2023-02-22T16:30:59;14.83;;;8.03;;
5077;SDS011;2557;51.390;7.494;2023-02-22T16:33:25;11.90;;;8.43;;
5077;SDS011;2557;51.390;7.494;2023-02-22T16:35:57;13.10;;;7.93;;
5077;SDS011;2557;51.390;7.494;2023-02-22T16:38:30;10.40;;;7.93;;
5077;SDS011;2557;51.390;7.494;2023-02-22T16:40:56;10.63;;;8.07;;
5077;SDS011;2557;51.390;7.494;2023-02-22T16:43:26;9.97;;;8.40;;
5077;SDS011;2557;51.390;7.494;2023-02-22T16:45:54;11.90;;;8.67;;
5077;SDS011;2557;51.390;7.494;2023-02-22T16:48:24;12.30;;;8.50;;
5077;SDS011;2557;51.390;7.494;2023-02-22T16:50:51;13.47;;;8.60;;
5077;SDS011;2557;51.390;7.494;2023-02-22T16:53:19;13.27;;;7.63;;
5077;SDS011;2557;51.390;7.494;2023-02-22T16:55:46;7.10;;;6.40;;
5077;SDS011;2557;51.390;7.494;2023-02-22T16:58:13;10.60;;;6.57;;
5077;SDS011;2557;51.390;7.494;2023-02-22T17:00:39;12.53;;;9.00;;
5077;SDS011;2557;51.390;7.494;2023-02-22T17:03:08;10.33;;;7.90;;